createdAt,value
2019-03-06T00:01:00.832Z,7.6
2019-03-06T00:02:03.640Z,7.8
2019-03-06T00:03:05.084Z,7.9
2019-03-06T00:04:06.702Z,7.9
2019-03-06T00:05:08.277Z,7.1
2019-03-06T00:06:18.437Z,7.3
2019-03-06T00:07:20.029Z,7.5
2019-03-06T00:08:21.590Z,7.7
2019-03-06T00:09:22.991Z,7.8
2019-03-06T00:10:24.566Z,7.9
2019-03-06T00:11:26.134Z,7.9
2019-03-06T00:12:27.691Z,7.9
2019-03-06T00:13:29.230Z,7.3
2019-03-06T00:14:30.808Z,7.4
2019-03-06T00:15:32.788Z,7.4
2019-03-06T00:16:34.457Z,7.5
2019-03-06T00:17:35.720Z,7.6
2019-03-06T00:18:37.298Z,7.6
2019-03-06T00:19:38.710Z,7.6
2019-03-06T00:20:40.220Z,7.7
2019-03-06T00:21:41.618Z,7.7
2019-03-06T00:22:43.023Z,7.7
2019-03-06T00:23:44.577Z,7.8
2019-03-06T00:24:46.186Z,7.8
2019-03-06T00:25:48.098Z,7.9
2019-03-06T00:26:49.654Z,7.9
2019-03-06T00:27:51.417Z,7.9
2019-03-06T00:28:52.866Z,7.9
2019-03-06T00:29:54.452Z,7.9
2019-03-06T00:30:55.845Z,7.9
2019-03-06T00:31:57.222Z,7.8
2019-03-06T00:32:58.640Z,7.8
2019-03-06T00:34:00.052Z,7.8
2019-03-06T00:35:01.608Z,7.8
2019-03-06T00:36:03.173Z,7.8
2019-03-06T00:37:04.900Z,7.8
2019-03-06T00:38:07.185Z,7.8
2019-03-06T00:39:09.035Z,7.8
2019-03-06T00:40:10.443Z,7.8
2019-03-06T00:41:11.999Z,7.8
2019-03-06T00:42:13.602Z,7.8
2019-03-06T00:43:14.851Z,7.5
2019-03-06T00:44:16.270Z,7.5
2019-03-06T00:45:17.704Z,7.5
2019-03-06T00:46:19.120Z,7.5
2019-03-06T00:47:20.694Z,7.5
2019-03-06T00:48:22.250Z,7.5
2019-03-06T00:49:24.823Z,7.5
2019-03-06T00:50:26.673Z,7.5
2019-03-06T00:51:28.101Z,7.5
2019-03-06T00:52:29.519Z,7.5
2019-03-06T00:53:31.095Z,7.5
2019-03-06T00:54:32.681Z,7.6
2019-03-06T00:55:34.091Z,7.6
2019-03-06T00:56:35.506Z,7.7
2019-03-06T00:57:36.914Z,7.7
2019-03-06T00:58:37.850Z,7.7
2019-03-06T00:59:39.420Z,7.7
2019-03-06T01:00:42.058Z,7.7
2019-03-06T01:01:43.871Z,7.7
2019-03-06T01:02:45.441Z,7.8
2019-03-06T01:03:47.004Z,7.8
2019-03-06T01:04:48.406Z,7.8
2019-03-06T01:05:49.788Z,7.8
2019-03-06T01:06:51.043Z,7.8
2019-03-06T01:07:52.449Z,7.8
2019-03-06T01:08:54.010Z,7.8
2019-03-06T01:09:55.567Z,7.8
2019-03-06T01:10:56.974Z,7.8
2019-03-06T01:11:59.347Z,7.7
2019-03-06T01:13:01.095Z,7.7
2019-03-06T01:14:02.503Z,7.6
2019-03-06T01:15:03.891Z,7.6
2019-03-06T01:16:05.291Z,7.5
2019-03-06T01:17:06.884Z,7.5
2019-03-06T01:18:08.444Z,7.5
2019-03-06T01:19:09.859Z,7.5
2019-03-06T01:20:11.275Z,7.5
2019-03-06T01:21:12.669Z,7.5
2019-03-06T01:22:14.226Z,7.5
2019-03-06T01:23:16.751Z,7.5
2019-03-06T01:24:18.509Z,7.5
2019-03-06T01:25:20.079Z,7.5
2019-03-06T01:26:21.501Z,7.5
2019-03-06T01:27:22.894Z,7.4
2019-03-06T01:28:24.330Z,7.4
2019-03-06T01:29:25.907Z,7.5
2019-03-06T01:30:27.473Z,7.5
2019-03-06T01:31:28.717Z,7.5
2019-03-06T01:32:29.963Z,7.6
2019-03-06T01:33:31.386Z,7.6
2019-03-06T01:34:33.852Z,7.7
2019-03-06T01:35:35.342Z,7.7
2019-03-06T01:36:36.893Z,7.7
2019-03-06T01:37:38.306Z,7.7
2019-03-06T01:38:39.893Z,7.7
2019-03-06T01:39:41.460Z,7.8
2019-03-06T01:40:42.901Z,7.8
2019-03-06T01:41:44.307Z,7.8
2019-03-06T01:42:45.891Z,7.8
2019-03-06T01:43:47.460Z,7.8
2019-03-06T01:44:48.868Z,7.8
2019-03-06T01:45:50.284Z,7.8
2019-03-06T01:46:52.839Z,7.8
2019-03-06T01:47:54.654Z,7.8
2019-03-06T01:48:56.079Z,7.8
2019-03-06T01:49:57.511Z,7.8
2019-03-06T01:50:58.935Z,7.8
2019-03-06T01:52:00.532Z,7.8
2019-03-06T01:53:01.924Z,7.8
2019-03-06T01:54:03.329Z,7.8
2019-03-06T01:55:04.897Z,7.8
2019-03-06T01:56:06.297Z,7.8
2019-03-06T01:57:07.726Z,7.8
2019-03-06T01:58:10.082Z,7.8
2019-03-06T01:59:11.725Z,7.8
2019-03-06T02:00:13.144Z,7.8
2019-03-06T02:01:14.533Z,7.8
2019-03-06T02:02:16.085Z,7.7
2019-03-06T02:03:17.499Z,7.7
2019-03-06T02:04:19.071Z,7.7
2019-03-06T02:05:20.490Z,7.8
2019-03-06T02:06:21.899Z,7.7
2019-03-06T02:07:23.485Z,7.7
2019-03-06T02:08:25.053Z,7.6
2019-03-06T02:09:27.739Z,7.5
2019-03-06T02:10:29.351Z,7.4
2019-03-06T02:11:30.746Z,7.3
2019-03-06T02:12:32.324Z,7.2
2019-03-06T02:13:33.732Z,7.1
2019-03-06T02:14:35.132Z,7.1
2019-03-06T02:15:36.546Z,7.2
2019-03-06T02:16:37.959Z,7.1
2019-03-06T02:17:39.539Z,7.1
2019-03-06T02:18:41.103Z,7.1
2019-03-06T02:19:42.528Z,7.1
2019-03-06T02:20:45.328Z,7.1
2019-03-06T02:21:46.833Z,7.1
2019-03-06T02:22:48.290Z,7.1
2019-03-06T02:23:49.713Z,7.1
2019-03-06T02:24:51.282Z,7.1
2019-03-06T02:25:52.713Z,7.1
2019-03-06T02:26:54.108Z,7.1
2019-03-06T02:27:55.529Z,7.1
2019-03-06T02:28:57.106Z,7.1
2019-03-06T02:29:58.680Z,7.1
2019-03-06T02:31:00.116Z,7.1
2019-03-06T02:32:02.729Z,7.1
2019-03-06T02:33:04.168Z,7.1
2019-03-06T02:34:05.608Z,7.1
2019-03-06T02:35:07.222Z,7.1
2019-03-06T02:36:08.825Z,7.1
2019-03-06T02:37:10.087Z,7.1
2019-03-06T02:38:11.519Z,7.1
2019-03-06T02:39:13.134Z,7.1
2019-03-06T02:40:14.747Z,7.1
2019-03-06T02:41:16.164Z,7.1
2019-03-06T02:42:18.620Z,7.1
2019-03-06T02:43:20.255Z,7.1
2019-03-06T02:44:21.822Z,7.1
2019-03-06T02:45:23.422Z,7.1
2019-03-06T02:46:24.981Z,7.1
2019-03-06T02:47:26.545Z,7.1
2019-03-06T02:48:28.133Z,7.1
2019-03-06T02:49:29.751Z,7.1
2019-03-06T02:50:31.347Z,7.2
2019-03-06T02:51:32.825Z,7.2
2019-03-06T02:52:33.932Z,7.2
2019-03-06T02:53:36.661Z,7.2
2019-03-06T02:54:38.459Z,7.2
2019-03-06T02:55:40.064Z,7.2
2019-03-06T02:56:41.527Z,7.2
2019-03-06T02:57:42.944Z,7.2
2019-03-06T02:58:45.886Z,7.2
2019-03-06T02:59:47.325Z,7.2
2019-03-06T03:00:48.957Z,7.2
2019-03-06T03:01:50.390Z,7.2
2019-03-06T03:02:51.992Z,7.2
2019-03-06T03:03:53.584Z,7.2
2019-03-06T03:04:55.798Z,7.2
2019-03-06T03:05:57.575Z,7.2
2019-03-06T03:06:59.009Z,7.2
2019-03-06T03:08:00.282Z,7.2
2019-03-06T03:09:01.595Z,7.3
2019-03-06T03:10:03.205Z,7.3
2019-03-06T03:11:04.907Z,7.3
2019-03-06T03:12:06.184Z,7.4
2019-03-06T03:13:07.600Z,7.4
2019-03-06T03:14:09.171Z,7.4
2019-03-06T03:15:10.773Z,7.4
2019-03-06T03:16:13.308Z,7.4
2019-03-06T03:17:14.484Z,7.5
2019-03-06T03:18:16.083Z,7.5
2019-03-06T03:19:17.546Z,7.5
2019-03-06T03:20:19.154Z,7.6
2019-03-06T03:21:20.435Z,7.6
2019-03-06T03:22:22.012Z,7.6
2019-03-06T03:23:23.591Z,7.7
2019-03-06T03:24:25.212Z,7.7
2019-03-06T03:25:26.789Z,7.8
2019-03-06T03:26:28.361Z,7.8
2019-03-06T03:27:30.417Z,7.8
2019-03-06T03:28:32.245Z,7.8
2019-03-06T03:29:33.815Z,7.8
2019-03-06T03:30:35.135Z,7.8
2019-03-06T03:31:36.720Z,7.7
2019-03-06T03:32:38.232Z,7.8
2019-03-06T03:33:39.873Z,7.7
2019-03-06T03:34:41.344Z,7.7
2019-03-06T03:35:42.933Z,7.7
2019-03-06T03:36:44.521Z,7.8
2019-03-06T03:37:47.070Z,7.8
2019-03-06T03:38:48.774Z,7.8
2019-03-06T03:39:50.363Z,7.9
2019-03-06T03:40:51.813Z,7.9
2019-03-06T03:41:53.404Z,7.9
2019-03-06T03:42:54.979Z,7.9
2019-03-06T03:43:56.420Z,7.8
2019-03-06T03:44:58.028Z,7.8
2019-03-06T03:45:59.614Z,7.8
2019-03-06T03:47:01.209Z,7.8
2019-03-06T03:48:02.798Z,7.8
2019-03-06T03:49:05.491Z,7.8
2019-03-06T03:50:07.116Z,7.8
2019-03-06T03:51:08.370Z,7.7
2019-03-06T03:52:09.796Z,7.8
2019-03-06T03:53:11.221Z,7.8
2019-03-06T03:54:12.655Z,7.8
2019-03-06T03:55:14.303Z,7.9
2019-03-06T03:56:15.777Z,7.9
2019-03-06T03:57:17.080Z,7.9
2019-03-06T03:58:18.705Z,7.9
2019-03-06T03:59:20.403Z,7.9
2019-03-06T04:00:22.070Z,7.9
2019-03-06T04:01:23.808Z,7.9
2019-03-06T04:02:25.249Z,7.9
2019-03-06T04:03:26.683Z,7.8
2019-03-06T04:04:28.135Z,7.7
2019-03-06T04:05:29.422Z,7.7
2019-03-06T04:06:30.864Z,7.6
2019-03-06T04:07:32.308Z,7.4
2019-03-06T04:08:33.893Z,7.3
2019-03-06T04:09:35.321Z,7.2
2019-03-06T04:10:37.972Z,7.2
2019-03-06T04:11:39.823Z,7.2
2019-03-06T04:12:41.428Z,7.1
2019-03-06T04:13:42.870Z,7.2
2019-03-06T04:14:44.458Z,7.2
2019-03-06T04:15:45.939Z,7.2
2019-03-06T04:16:47.386Z,7.1
2019-03-06T04:17:48.886Z,7.1
2019-03-06T04:18:50.463Z,7.1
2019-03-06T04:19:51.736Z,7.1
2019-03-06T04:20:53.804Z,7.1
2019-03-06T04:21:55.250Z,7.1
2019-03-06T04:22:56.827Z,7.2
2019-03-06T04:23:58.254Z,7.2
2019-03-06T04:24:59.702Z,7.2
2019-03-06T04:26:01.304Z,7.2
2019-03-06T04:27:02.936Z,7.2
2019-03-06T04:28:04.567Z,7.2
2019-03-06T04:29:05.838Z,7.2
2019-03-06T04:30:07.268Z,7.2
2019-03-06T04:31:08.701Z,7.2
2019-03-06T04:32:11.370Z,7.2
2019-03-06T04:33:13.013Z,7.2
2019-03-06T04:34:14.617Z,7.3
2019-03-06T04:35:16.230Z,7.3
2019-03-06T04:36:17.505Z,7.4
2019-03-06T04:37:19.075Z,7.5
2019-03-06T04:38:20.655Z,7.6
2019-03-06T04:39:22.639Z,7.8
2019-03-06T04:40:24.177Z,7.9
2019-03-06T04:41:25.797Z,7.9
2019-03-06T04:42:27.396Z,7.9
2019-03-06T04:43:29.775Z,7.9
2019-03-06T04:44:31.186Z,7.9
2019-03-06T04:45:32.627Z,7.6
2019-03-06T04:46:34.283Z,7.7
2019-03-06T04:47:35.536Z,7.8
2019-03-06T04:48:36.933Z,7.9
2019-03-06T04:49:38.553Z,7.9
2019-03-06T04:50:39.969Z,7.9
2019-03-06T04:51:41.398Z,7.6
2019-03-06T04:52:42.818Z,7.7
2019-03-06T04:53:44.084Z,7.8
2019-03-06T04:54:46.582Z,7.9
2019-03-06T04:55:48.179Z,7.9
2019-03-06T04:56:49.747Z,7.9
2019-03-06T04:57:51.163Z,7.9
2019-03-06T04:58:52.577Z,7.9
2019-03-06T04:59:54.143Z,7.9
2019-03-06T05:00:55.615Z,7.9
2019-03-06T05:01:57.094Z,7.8
2019-03-06T05:02:58.751Z,7.9
2019-03-06T05:04:00.394Z,7.9
2019-03-06T05:05:01.862Z,7.9
2019-03-06T05:06:04.409Z,7.9
2019-03-06T05:07:06.028Z,7.9
2019-03-06T05:08:07.625Z,7.9
2019-03-06T05:09:09.054Z,7.9
2019-03-06T05:10:10.465Z,7.9
2019-03-06T05:11:11.895Z,7.9
2019-03-06T05:12:13.315Z,7.8
2019-03-06T05:13:14.755Z,7.9
2019-03-06T05:14:16.329Z,7.9
2019-03-06T05:15:17.743Z,7.9
2019-03-06T05:16:19.321Z,7.9
2019-03-06T05:17:21.891Z,7.9
2019-03-06T05:18:23.727Z,7.9
2019-03-06T05:19:25.331Z,7.9
2019-03-06T05:20:26.913Z,7.8
2019-03-06T05:21:28.484Z,7.8
2019-03-06T05:22:29.895Z,7.8
2019-03-06T05:23:31.469Z,7.8
2019-03-06T05:24:32.552Z,7.7
2019-03-06T05:25:36.026Z,7.7
2019-03-06T05:26:37.829Z,7.7
2019-03-06T05:27:39.153Z,7.7
2019-03-06T05:28:41.744Z,7.7
2019-03-06T05:29:43.465Z,7.7
2019-03-06T05:30:44.881Z,7.6
2019-03-06T05:31:46.453Z,7.6
2019-03-06T05:32:48.038Z,7.5
2019-03-06T05:33:49.609Z,7.5
2019-03-06T05:34:51.025Z,7.4
2019-03-06T05:35:52.601Z,7.4
2019-03-06T05:36:54.166Z,7.4
2019-03-06T05:37:55.745Z,7.4
2019-03-06T05:38:57.315Z,7.3
2019-03-06T05:39:59.317Z,7.3
2019-03-06T05:41:00.905Z,7.2
2019-03-06T05:42:02.783Z,7.2
2019-03-06T05:43:04.362Z,7.2
2019-03-06T05:44:05.610Z,7.3
2019-03-06T05:45:07.171Z,7.3
2019-03-06T05:46:08.787Z,7.3
2019-03-06T05:47:10.341Z,7.4
2019-03-06T05:48:11.829Z,7.4
2019-03-06T05:49:13.231Z,7.4
2019-03-06T05:50:14.501Z,7.4
2019-03-06T05:51:16.079Z,7.3
2019-03-06T05:52:18.660Z,7.3
2019-03-06T05:53:20.301Z,7.2
2019-03-06T05:54:21.697Z,7.2
2019-03-06T05:55:23.147Z,7.1
2019-03-06T05:56:24.409Z,7.2
2019-03-06T05:57:25.807Z,7.1
2019-03-06T05:58:27.381Z,7.1
2019-03-06T05:59:28.785Z,7.1
2019-03-06T06:00:30.219Z,7.2
2019-03-06T06:01:31.639Z,7.2
2019-03-06T06:02:33.219Z,7.2
2019-03-06T06:03:35.851Z,7.2
2019-03-06T06:04:37.624Z,7.2
2019-03-06T06:05:39.201Z,7.2
2019-03-06T06:06:40.451Z,7.2
2019-03-06T06:07:43.133Z,7.2
2019-03-06T06:08:44.717Z,7.2
2019-03-06T06:09:46.291Z,7.2
2019-03-06T06:10:47.717Z,7.3
2019-03-06T06:11:49.299Z,7.3
2019-03-06T06:12:50.741Z,7.4
2019-03-06T06:13:52.174Z,7.4
2019-03-06T06:14:54.500Z,7.4
2019-03-06T06:15:55.637Z,7.5
2019-03-06T06:16:57.211Z,7.5
2019-03-06T06:17:58.603Z,7.6
2019-03-06T06:19:02.351Z,7.6
2019-03-06T06:20:03.941Z,7.7
2019-03-06T06:21:05.358Z,7.8
2019-03-06T06:22:06.928Z,7.8
2019-03-06T06:23:08.319Z,7.9
2019-03-06T06:24:09.902Z,7.9
2019-03-06T06:25:11.532Z,7.9
2019-03-06T06:26:13.049Z,7.9
2019-03-06T06:27:14.506Z,7.9
2019-03-06T06:28:16.295Z,7.9
2019-03-06T06:29:17.727Z,7.9
2019-03-06T06:30:19.282Z,7.9
2019-03-06T06:31:20.689Z,7.9
2019-03-06T06:32:22.272Z,7.8
2019-03-06T06:33:23.683Z,7.8
2019-03-06T06:34:25.259Z,7.8
2019-03-06T06:35:27.893Z,7.8
2019-03-06T06:36:29.479Z,7.8
2019-03-06T06:37:31.043Z,7.8
2019-03-06T06:38:33.117Z,7.7
2019-03-06T06:39:34.931Z,7.7
2019-03-06T06:40:37.327Z,7.7
2019-03-06T06:41:38.683Z,7.7
2019-03-06T06:42:39.935Z,7.7
2019-03-06T06:43:41.396Z,7.8
2019-03-06T06:44:42.812Z,7.8
2019-03-06T06:45:44.411Z,7.8
2019-03-06T06:46:45.671Z,7.8
2019-03-06T06:47:47.111Z,7.8
2019-03-06T06:48:48.559Z,7.8
2019-03-06T06:49:50.681Z,7.8
2019-03-06T06:51:03.440Z,7.8
2019-03-06T06:52:05.529Z,7.8
2019-03-06T06:53:07.162Z,7.8
2019-03-06T06:54:08.578Z,7.8
2019-03-06T06:55:10.010Z,7.8
2019-03-06T06:56:11.429Z,7.8
2019-03-06T06:57:13.000Z,7.8
2019-03-06T06:58:14.563Z,7.8
2019-03-06T06:59:15.668Z,7.8
2019-03-06T07:00:17.239Z,7.8
2019-03-06T07:01:18.685Z,7.8
2019-03-06T07:02:19.943Z,7.8
2019-03-06T07:03:23.790Z,7.8
2019-03-06T07:04:25.304Z,7.8
2019-03-06T07:05:27.179Z,7.8
2019-03-06T07:06:28.739Z,7.8
2019-03-06T07:07:30.315Z,7.8
2019-03-06T07:08:31.933Z,7.8
2019-03-06T07:09:33.493Z,7.8
2019-03-06T07:10:35.081Z,7.8
2019-03-06T07:11:36.651Z,7.8
2019-03-06T07:12:38.067Z,7.8
2019-03-06T07:13:39.631Z,7.9
2019-03-06T07:14:41.184Z,7.2
2019-03-06T07:15:43.763Z,7.3
2019-03-06T07:16:45.250Z,7.4
2019-03-06T07:17:46.494Z,7.4
2019-03-06T07:18:48.050Z,7.5
2019-03-06T07:19:49.617Z,7.5
2019-03-06T07:20:51.203Z,7.5
2019-03-06T07:21:52.776Z,7.4
2019-03-06T07:22:53.855Z,7.3
2019-03-06T07:23:55.424Z,7.3
2019-03-06T07:24:56.995Z,7.2
2019-03-06T07:25:58.588Z,7.2
2019-03-06T07:27:00.285Z,7.1
2019-03-06T07:28:02.595Z,7.1
2019-03-06T07:29:04.424Z,7.2
2019-03-06T07:30:05.838Z,7.1
2019-03-06T07:31:07.421Z,7.1
2019-03-06T07:32:08.829Z,7.2
2019-03-06T07:33:10.243Z,7.2
2019-03-06T07:34:11.485Z,7.1
2019-03-06T07:35:13.089Z,7.2
2019-03-06T07:36:14.671Z,7.2
2019-03-06T07:37:16.219Z,7.2
2019-03-06T07:38:17.794Z,7.1
2019-03-06T07:39:19.971Z,7.2
2019-03-06T07:40:21.378Z,7.2
2019-03-06T07:41:22.945Z,7.2
2019-03-06T07:42:24.518Z,7.2
2019-03-06T07:43:26.089Z,7.2
2019-03-06T07:44:32.035Z,7.2
2019-03-06T07:45:33.460Z,7.2
2019-03-06T07:46:35.032Z,7.2
2019-03-06T07:47:36.464Z,7.2
2019-03-06T07:48:38.041Z,7.3
2019-03-06T07:49:46.876Z,7.4
2019-03-06T07:50:48.484Z,7.4
2019-03-06T07:51:50.062Z,7.5
2019-03-06T07:52:51.660Z,7.6
2019-03-06T07:53:54.384Z,7.7
2019-03-06T07:54:56.268Z,7.7
2019-03-06T07:55:57.646Z,7.7
2019-03-06T07:57:01.191Z,7.7
2019-03-06T07:58:02.854Z,7.7
2019-03-06T07:59:04.250Z,7.8
2019-03-06T08:00:05.366Z,7.8
2019-03-06T08:01:16.602Z,7.9
2019-03-06T08:02:18.657Z,7.9
2019-03-06T08:03:20.230Z,7.9
2019-03-06T08:04:21.643Z,7.9
2019-03-06T08:05:23.257Z,7.9
2019-03-06T08:06:24.528Z,7.9
2019-03-06T08:07:26.105Z,7.9
2019-03-06T08:08:28.925Z,7.9
2019-03-06T08:09:30.362Z,7.9
2019-03-06T08:10:31.790Z,7.9
2019-03-06T08:11:33.375Z,7.9
2019-03-06T08:12:34.795Z,7.9
2019-03-06T08:13:36.070Z,7.2
2019-03-06T08:14:37.634Z,7.3
2019-03-06T08:15:39.188Z,7.3
2019-03-06T08:16:40.770Z,7.4
2019-03-06T08:17:42.338Z,7.4
2019-03-06T08:18:43.773Z,7.5
2019-03-06T08:19:45.690Z,7.6
2019-03-06T08:20:47.397Z,7.6
2019-03-06T08:21:49.250Z,7.7
2019-03-06T08:22:50.664Z,7.7
2019-03-06T08:23:52.082Z,7.7
2019-03-06T08:24:53.510Z,7.7
2019-03-06T08:25:54.921Z,7.8
2019-03-06T08:26:56.498Z,7.8
2019-03-06T08:27:57.922Z,7.8
2019-03-06T08:28:59.357Z,7.8
2019-03-06T08:30:00.977Z,7.8
2019-03-06T08:31:02.384Z,7.8
2019-03-06T08:32:05.042Z,7.8
2019-03-06T08:33:06.680Z,7.8
2019-03-06T08:34:08.092Z,7.8
2019-03-06T08:35:09.537Z,7.8
2019-03-06T08:36:11.102Z,7.8
2019-03-06T08:37:12.522Z,7.8
2019-03-06T08:38:13.940Z,7.9
2019-03-06T08:39:15.376Z,7.9
2019-03-06T08:40:16.626Z,7.9
2019-03-06T08:41:18.036Z,7.8
2019-03-06T08:42:19.293Z,7.9
2019-03-06T08:43:21.876Z,7.9
2019-03-06T08:44:23.402Z,7.9
2019-03-06T08:45:24.976Z,7.9
2019-03-06T08:46:26.407Z,7.9
2019-03-06T08:47:27.834Z,7.2
2019-03-06T08:48:29.409Z,7.3
2019-03-06T08:49:30.805Z,7.4
2019-03-06T08:50:32.394Z,7.5
2019-03-06T08:51:33.959Z,7.5
2019-03-06T08:52:35.232Z,7.6
2019-03-06T08:53:36.642Z,7.7
2019-03-06T08:54:39.000Z,7.7
2019-03-06T08:55:40.453Z,7.8
2019-03-06T08:56:42.050Z,7.8
2019-03-06T08:57:43.608Z,7.7
2019-03-06T08:58:45.180Z,7.7
2019-03-06T08:59:46.604Z,7.6
2019-03-06T09:00:48.156Z,7.4
2019-03-06T09:01:49.706Z,7.3
2019-03-06T09:02:51.292Z,7.2
2019-03-06T09:03:52.692Z,7.1
2019-03-06T09:04:54.269Z,7.1
2019-03-06T09:05:56.174Z,7.1
2019-03-06T09:06:58.240Z,7.1
2019-03-06T09:08:00.074Z,7.1
2019-03-06T09:09:03.752Z,7.1
2019-03-06T09:10:05.356Z,7.1
2019-03-06T09:11:06.947Z,7.1
2019-03-06T09:12:08.538Z,7.1
2019-03-06T09:13:10.137Z,7.1
2019-03-06T09:14:11.730Z,7.2
2019-03-06T09:15:13.308Z,7.1
2019-03-06T09:16:14.883Z,7.2
2019-03-06T09:17:16.321Z,7.2
2019-03-06T09:18:17.502Z,7.2
2019-03-06T09:19:19.709Z,7.2
2019-03-06T09:20:21.572Z,7.2
2019-03-06T09:21:22.842Z,7.2
2019-03-06T09:22:24.444Z,7.2
2019-03-06T09:23:25.873Z,7.2
2019-03-06T09:24:27.292Z,7.2
2019-03-06T09:25:28.892Z,7.2
2019-03-06T09:26:30.498Z,7.2
2019-03-06T09:27:32.104Z,7.3
2019-03-06T09:28:33.520Z,7.3
2019-03-06T09:29:34.956Z,7.4
2019-03-06T09:30:37.493Z,7.4
2019-03-06T09:31:38.980Z,7.4
2019-03-06T09:32:40.424Z,7.4
2019-03-06T09:33:41.860Z,7.4
2019-03-06T09:34:43.261Z,7.5
2019-03-06T09:35:44.530Z,7.5
2019-03-06T09:36:46.103Z,7.5
2019-03-06T09:37:47.503Z,7.5
2019-03-06T09:38:49.078Z,7.6
2019-03-06T09:39:50.648Z,7.7
2019-03-06T09:40:51.904Z,7.7
2019-03-06T09:41:54.518Z,7.7
2019-03-06T09:42:56.072Z,7.8
2019-03-06T09:43:57.460Z,7.9
2019-03-06T09:44:59.081Z,7.9
2019-03-06T09:46:00.488Z,7.9
2019-03-06T09:47:02.076Z,7.9
2019-03-06T09:48:03.647Z,7.9
2019-03-06T09:49:13.440Z,7.9
2019-03-06T09:50:14.868Z,7.9
2019-03-06T09:51:16.470Z,7.9
2019-03-06T09:52:17.612Z,7.9
2019-03-06T09:53:18.943Z,7.9
2019-03-06T09:54:21.254Z,7.9
2019-03-06T09:55:22.690Z,7.9
2019-03-06T09:56:24.118Z,7.2
2019-03-06T09:57:25.553Z,7.3
2019-03-06T09:58:26.962Z,7.4
2019-03-06T09:59:28.518Z,7.5
2019-03-06T10:00:29.960Z,7.5
2019-03-06T10:01:31.563Z,7.6
2019-03-06T10:02:32.971Z,7.6
2019-03-06T10:03:34.545Z,7.7
2019-03-06T10:04:35.957Z,7.8
2019-03-06T10:05:37.942Z,7.8
2019-03-06T10:06:39.526Z,7.8
2019-03-06T10:07:41.159Z,7.9
2019-03-06T10:08:42.592Z,7.9
2019-03-06T10:09:43.846Z,7.9
2019-03-06T10:11:00.109Z,7.9
2019-03-06T10:12:01.699Z,7.9
2019-03-06T10:13:05.038Z,7.9
2019-03-06T10:14:06.311Z,7.9
2019-03-06T10:15:07.920Z,7.9
2019-03-06T10:16:09.696Z,7.9
2019-03-06T10:17:11.283Z,7.9
2019-03-06T10:18:12.235Z,7.2
2019-03-06T10:19:13.602Z,7.3
2019-03-06T10:20:26.217Z,7.3
2019-03-06T10:21:28.051Z,7.3
2019-03-06T10:22:29.695Z,7.4
2019-03-06T10:23:31.451Z,7.4
2019-03-06T10:24:33.100Z,7.4
2019-03-06T10:25:35.162Z,7.4
2019-03-06T10:26:36.830Z,7.4
2019-03-06T10:27:38.480Z,7.4
2019-03-06T10:28:41.451Z,7.4
2019-03-06T10:29:43.104Z,7.4
2019-03-06T10:30:44.817Z,7.5
2019-03-06T10:31:46.301Z,7.6
2019-03-06T10:32:47.970Z,7.5
2019-03-06T10:33:49.427Z,7.6
2019-03-06T10:34:51.025Z,7.6
2019-03-06T10:35:52.418Z,7.6
2019-03-06T10:36:54.012Z,7.6
2019-03-06T10:37:55.579Z,7.6
2019-03-06T10:38:57.479Z,7.5
2019-03-06T10:39:59.227Z,7.4
2019-03-06T10:41:00.638Z,7.2
2019-03-06T10:42:02.376Z,7.1
2019-03-06T10:43:04.078Z,7.1
2019-03-06T10:44:05.601Z,7.1
2019-03-06T10:45:07.211Z,7.1
2019-03-06T10:46:08.912Z,7.1
2019-03-06T10:47:11.349Z,7.1
2019-03-06T10:48:12.858Z,7.1
2019-03-06T10:49:14.463Z,7.1
2019-03-06T10:50:26.002Z,7.1
2019-03-06T10:51:28.231Z,7.1
2019-03-06T10:52:29.939Z,7.1
2019-03-06T10:53:42.873Z,7.1
2019-03-06T10:54:46.628Z,7.1
2019-03-06T10:55:48.030Z,7.1
2019-03-06T10:56:49.535Z,7.1
2019-03-06T10:57:51.119Z,7.1
2019-03-06T10:58:54.002Z,7.1
2019-03-06T10:59:55.819Z,7.1
2019-03-06T11:00:57.412Z,7.1
2019-03-06T11:01:59.699Z,7.2
2019-03-06T11:03:01.390Z,7.2
2019-03-06T11:04:02.931Z,7.2
2019-03-06T11:05:04.426Z,7.2
2019-03-06T11:06:05.799Z,7.2
2019-03-06T11:07:08.494Z,7.2
2019-03-06T11:08:10.471Z,7.2
2019-03-06T11:09:12.291Z,7.2
2019-03-06T11:12:20.949Z,7.2
2019-03-06T11:13:22.608Z,7.2
2019-03-06T11:14:24.340Z,7.2
2019-03-06T11:15:26.590Z,7.2
2019-03-06T11:16:33.935Z,7.3
2019-03-06T11:17:39.479Z,7.3
2019-03-06T11:18:41.329Z,7.4
2019-03-06T11:19:42.769Z,7.6
2019-03-06T11:20:44.205Z,7.7
2019-03-06T11:21:45.826Z,7.9
2019-03-06T11:22:47.407Z,7.9
2019-03-06T11:23:49.011Z,7.9
2019-03-06T11:24:50.608Z,7.2
2019-03-06T11:25:52.086Z,7.4
2019-03-06T11:26:53.597Z,7.5
2019-03-06T11:27:55.064Z,7.7
2019-03-06T11:28:56.537Z,7.8
2019-03-06T11:29:59.639Z,7.9
2019-03-06T11:31:01.329Z,7.2
2019-03-06T11:32:02.809Z,7.4
2019-03-06T11:33:04.496Z,7.6
2019-03-06T11:34:05.821Z,7.7
2019-03-06T11:35:07.443Z,7.8
2019-03-06T11:36:09.103Z,7.9
2019-03-06T11:37:10.777Z,7.9
2019-03-06T11:38:12.292Z,7.9
2019-03-06T11:39:14.308Z,7.9
2019-03-06T11:40:16.161Z,7.9
2019-03-06T11:41:17.963Z,7.6
2019-03-06T11:42:19.434Z,7.8
2019-03-06T11:43:21.088Z,7.9
2019-03-06T11:44:22.722Z,7.3
2019-03-06T11:45:24.008Z,7.4
2019-03-06T11:46:25.476Z,7.6
2019-03-06T11:47:27.103Z,7.7
2019-03-06T11:48:28.705Z,7.8
2019-03-06T11:49:30.180Z,7.9
2019-03-06T11:50:41.658Z,7.9
2019-03-06T11:51:44.226Z,7.4
2019-03-06T11:52:45.967Z,7.5
2019-03-06T11:53:47.455Z,7.7
2019-03-06T11:54:49.559Z,7.8
2019-03-06T11:55:51.180Z,7.9
2019-03-06T11:56:52.867Z,7.9
2019-03-06T11:57:54.363Z,7.9
2019-03-06T11:58:56.017Z,7.9
2019-03-06T11:59:57.679Z,7.9
2019-03-06T12:01:00.241Z,7.9
2019-03-06T12:02:01.644Z,7.9
2019-03-06T12:03:03.314Z,7.8
2019-03-06T12:04:04.807Z,7.8
2019-03-06T12:05:06.438Z,7.8
2019-03-06T12:06:07.640Z,7.8
2019-03-06T12:07:09.322Z,7.9
2019-03-06T12:08:10.849Z,7.8
2019-03-06T12:09:12.489Z,7.9
2019-03-06T12:10:14.675Z,7.9
2019-03-06T12:11:16.023Z,7.8
2019-03-06T12:12:17.535Z,7.8
2019-03-06T12:13:19.058Z,7.8
2019-03-06T12:14:20.713Z,7.8
2019-03-06T12:15:22.350Z,7.8
2019-03-06T12:16:24.030Z,7.8
2019-03-06T12:17:25.591Z,7.8
2019-03-06T12:18:27.277Z,7.8
2019-03-06T12:19:29.174Z,7.8
2019-03-06T12:20:30.843Z,7.8
2019-03-06T12:21:32.814Z,7.8
2019-03-06T12:22:34.501Z,7.8
2019-03-06T12:23:36.160Z,7.7
2019-03-06T12:24:37.472Z,7.7
2019-03-06T12:25:38.948Z,7.6
2019-03-06T12:26:40.601Z,7.5
2019-03-06T12:27:42.259Z,7.4
2019-03-06T12:28:43.819Z,7.2
2019-03-06T12:29:45.856Z,7.1
2019-03-06T12:30:47.460Z,7.1
2019-03-06T12:31:49.396Z,7.1
2019-03-06T12:32:51.020Z,7.1
2019-03-06T12:33:52.627Z,7.1
2019-03-06T12:34:53.960Z,7.1
2019-03-06T12:35:55.585Z,7.1
2019-03-06T12:36:56.880Z,7.1
2019-03-06T12:37:58.474Z,7.1
2019-03-06T12:39:00.064Z,7.1
2019-03-06T12:40:01.897Z,7.1
2019-03-06T12:41:04.704Z,7.1
2019-03-06T12:42:16.425Z,7.1
2019-03-06T12:43:18.922Z,7.1
2019-03-06T12:44:20.531Z,7.1
2019-03-06T12:45:21.821Z,7.1
2019-03-06T12:46:25.578Z,7.1
2019-03-06T12:47:27.030Z,7.1
2019-03-06T12:48:28.607Z,7.2
2019-03-06T12:49:30.253Z,7.2
2019-03-06T12:50:31.860Z,7.2
2019-03-06T12:51:33.326Z,7.2
2019-03-06T12:52:34.945Z,7.2
2019-03-06T12:53:37.457Z,7.2
2019-03-06T12:54:39.364Z,7.2
2019-03-06T12:55:40.791Z,7.2
2019-03-06T12:56:42.383Z,7.2
2019-03-06T12:57:43.652Z,7.2
2019-03-06T12:58:44.928Z,7.3
2019-03-06T12:59:46.534Z,7.3
2019-03-06T13:00:48.150Z,7.4
2019-03-06T13:01:49.289Z,7.5
2019-03-06T13:02:50.890Z,7.6
2019-03-06T13:03:52.911Z,7.8
2019-03-06T13:04:55.130Z,7.9
2019-03-06T13:05:56.589Z,7.9
2019-03-06T13:06:58.200Z,7.9
2019-03-06T13:07:59.684Z,7.8
2019-03-06T13:09:01.193Z,7.9
2019-03-06T13:10:02.830Z,7.9
2019-03-06T13:11:04.337Z,7.9
2019-03-06T13:12:05.990Z,7.5
2019-03-06T13:13:08.132Z,7.7
2019-03-06T13:14:09.926Z,7.8
2019-03-06T13:15:11.720Z,7.9
2019-03-06T13:16:13.196Z,7.9
2019-03-06T13:17:14.805Z,7.9
2019-03-06T13:18:16.168Z,7.9
2019-03-06T13:19:17.811Z,7.9
2019-03-06T13:20:19.475Z,7.8
2019-03-06T13:21:21.088Z,7.9
2019-03-06T13:22:22.592Z,7.9
2019-03-06T13:23:24.982Z,7.9
2019-03-06T13:24:26.875Z,7.9
2019-03-06T13:25:28.255Z,7.9
2019-03-06T13:26:29.765Z,7.9
2019-03-06T13:27:31.362Z,7.9
2019-03-06T13:28:32.863Z,7.9
2019-03-06T13:29:34.483Z,7.9
2019-03-06T13:30:35.772Z,7.9
2019-03-06T13:31:37.441Z,7.9
2019-03-06T13:32:39.122Z,7.9
2019-03-06T13:33:41.933Z,7.9
2019-03-06T13:34:53.719Z,7.9
2019-03-06T13:35:55.955Z,7.9
2019-03-06T13:36:57.803Z,7.9
2019-03-06T13:37:59.443Z,7.9
2019-03-06T13:39:08.165Z,7.9
2019-03-06T13:40:19.814Z,7.9
2019-03-06T13:41:23.199Z,7.2
2019-03-06T13:42:24.393Z,7.3
2019-03-06T13:43:26.104Z,7.3
2019-03-06T13:44:27.785Z,7.3
2019-03-06T13:45:29.452Z,7.3
2019-03-06T13:46:30.933Z,7.3
2019-03-06T13:47:32.575Z,7.3
2019-03-06T13:48:35.359Z,7.3
2019-03-06T13:49:36.765Z,7.3
2019-03-06T13:50:38.399Z,7.2
2019-03-06T13:51:40.073Z,7.2
2019-03-06T13:52:41.737Z,7.2
2019-03-06T13:53:43.257Z,7.2
2019-03-06T13:54:44.909Z,7.2
2019-03-06T13:55:47.937Z,7.2
2019-03-06T13:56:49.397Z,7.2
2019-03-06T13:57:51.361Z,7.2
2019-03-06T13:58:53.544Z,7.2
2019-03-06T13:59:55.355Z,7.2
2019-03-06T14:00:56.846Z,7.3
2019-03-06T14:01:58.364Z,7.3
2019-03-06T14:02:59.680Z,7.4
2019-03-06T14:04:01.214Z,7.4
2019-03-06T14:05:02.685Z,7.4
2019-03-06T14:06:04.374Z,7.4
2019-03-06T14:07:05.870Z,7.3
2019-03-06T14:08:08.260Z,7.2
2019-03-06T14:09:09.910Z,7.2
2019-03-06T14:10:11.427Z,7.2
2019-03-06T14:11:13.047Z,7.1
2019-03-06T14:12:14.369Z,7.2
2019-03-06T14:13:16.008Z,7.2
2019-03-06T14:14:17.633Z,7.1